Time;durP1;ratioP1;P1;durP2;ratioP2;P2;SDS_P1;SDS_P2;PMS_P1;PMS_P2;Temp;Humidity;BMP_temperature;BMP_pressure;BME280_temperature;BME280_humidity;BME280_pressure;Samples;Min_cycle;Max_cycle;Signal;HPM_P1;HPM_P2
2021/12/01 00:01:04;;;;;;;11.00;2.80;;;;;;;2.92;100.00;99466.53;7395745;19;20473;-44
2021/12/01 00:03:34;;;;;;;16.10;2.70;;;;;;;3.01;100.00;99456.81;7399302;19;20841;-45
2021/12/01 00:06:05;;;;;;;13.77;2.90;;;;;;;3.08;100.00;99458.00;7394591;19;20415;-43
2021/12/01 00:08:35;;;;;;;16.20;3.40;;;;;;;3.05;100.00;99443.44;7399419;19;20403;-44
2021/12/01 00:11:07;;;;;;;22.10;3.17;;;;;;;3.04;100.00;99426.41;7395331;19;20429;-45
2021/12/01 00:13:37;;;;;;;19.30;3.30;;;;;;;3.06;100.00;99421.34;7399470;19;20384;-49
2021/12/01 00:16:08;;;;;;;15.23;3.00;;;;;;;3.01;100.00;99410.94;7394143;19;20483;-43
2021/12/01 00:18:38;;;;;;;18.70;3.33;;;;;;;3.44;100.00;99406.22;7399602;19;20389;-45
2021/12/01 00:21:07;;;;;;;14.00;3.00;;;;;;;3.24;100.00;99401.03;7395155;19;20423;-44
2021/12/01 00:23:37;;;;;;;14.87;5.03;;;;;;;3.29;100.00;99391.03;7398574;19;20392;-45
2021/12/01 00:26:09;;;;;;;20.93;7.57;;;;;;;3.37;100.00;99393.19;7393642;19;20750;-45
2021/12/01 00:28:38;;;;;;;19.57;3.00;;;;;;;3.35;100.00;99379.44;7399348;19;20663;-45
2021/12/01 00:31:08;;;;;;;21.90;3.80;;;;;;;3.38;100.00;99371.97;7394955;19;20894;-44
2021/12/01 00:33:38;;;;;;;26.00;7.77;;;;;;;3.37;100.00;99357.47;7398804;19;20403;-44
2021/12/01 00:36:08;;;;;;;21.67;6.50;;;;;;;3.54;100.00;99349.75;7393699;19;20757;-48
2021/12/01 00:38:37;;;;;;;40.47;12.47;;;;;;;3.59;100.00;99345.72;7398890;19;20391;-44
2021/12/01 00:41:09;;;;;;;23.20;3.50;;;;;;;3.52;100.00;99338.59;7394585;19;20479;-43
2021/12/01 00:43:41;;;;;;;12.00;3.70;;;;;;;3.70;100.00;99322.41;7398273;19;20392;-45
2021/12/01 00:46:13;;;;;;;48.20;19.70;;;;;;;4.15;100.00;99314.25;7393316;19;20446;-44
2021/12/01 00:48:43;;;;;;;35.10;12.30;;;;;;;4.31;100.00;99303.88;7398818;19;20390;-43
2021/12/01 00:51:13;;;;;;;20.93;6.53;;;;;;;4.22;100.00;99293.28;7397500;19;20494;-44
2021/12/01 00:53:42;;;;;;;29.87;9.83;;;;;;;4.32;100.00;99297.09;7405989;19;20455;-45
2021/12/01 00:56:14;;;;;;;33.60;16.90;;;;;;;4.38;100.00;99297.38;7400801;19;20422;-43
2021/12/01 00:58:44;;;;;;;31.30;11.40;;;;;;;4.53;100.00;99288.59;7406131;19;20467;-47
2021/12/01 01:01:13;;;;;;;30.90;11.40;;;;;;;4.57;100.00;99291.34;7404017;19;20473;-49
2021/12/01 01:03:43;;;;;;;26.67;9.03;;;;;;;4.54;100.00;99280.13;7405437;19;20391;-43
2021/12/01 01:06:13;;;;;;;19.67;5.23;;;;;;;4.51;100.00;99282.56;7401514;19;20459;-51
2021/12/01 01:08:43;;;;;;;33.27;13.20;;;;;;;4.48;100.00;99280.75;7405430;19;20375;-45
2021/12/01 01:16:41;;;;;;;36.10;13.63;;;;;;;4.70;100.00;99272.31;7399654;19;20471;-47
2021/12/01 01:19:10;;;;;;;33.23;10.30;;;;;;;4.48;100.00;99264.53;7405471;19;20396;-48
2021/12/01 01:21:44;;;;;;;31.57;11.80;;;;;;;4.29;100.00;99249.31;7400900;19;20415;-47
2021/12/01 01:24:13;;;;;;;21.83;7.77;;;;;;;4.25;100.00;99246.59;7404643;19;20388;-48
2021/12/01 01:26:46;;;;;;;41.10;19.70;;;;;;;4.18;100.00;99243.75;7399351;19;20486;-47
2021/12/01 01:29:20;;;;;;;21.33;7.03;;;;;;;4.20;100.00;99231.03;7404925;19;20443;-49
2021/12/01 01:31:52;;;;;;;34.40;11.20;;;;;;;4.15;100.00;99215.53;7404527;19;20438;-45
2021/12/01 01:34:21;;;;;;;25.30;6.43;;;;;;;4.26;100.00;99210.03;7404944;19;20637;-45
2021/12/01 01:36:51;;;;;;;20.27;7.17;;;;;;;4.11;100.00;99205.13;7398869;19;20431;-43
2021/12/01 01:39:21;;;;;;;39.27;13.10;;;;;;;4.15;100.00;99202.75;7404630;19;20388;-46
2021/12/01 01:41:54;;;;;;;40.83;13.20;;;;;;;4.14;100.00;99188.25;7404071;19;20451;-44
2021/12/01 01:44:24;;;;;;;27.83;10.90;;;;;;;4.15;100.00;99184.03;7404056;19;20399;-47
2021/12/01 01:46:53;;;;;;;30.63;11.07;;;;;;;4.17;100.00;99178.16;7398649;19;20491;-43
2021/12/01 01:49:34;;;;;;;35.37;12.60;;;;;;;4.11;100.00;99159.19;7404594;19;20781;-50
2021/12/01 01:52:04;;;;;;;29.27;12.33;;;;;;;3.90;100.00;99158.31;7403302;19;20419;-44
2021/12/01 01:54:34;;;;;;;27.10;12.87;;;;;;;3.99;100.00;99144.22;7401029;19;20679;-47
2021/12/01 01:57:06;;;;;;;21.80;8.10;;;;;;;3.86;100.00;99145.38;7406224;19;20427;-45
2021/12/01 01:59:36;;;;;;;21.03;8.97;;;;;;;3.88;100.00;99133.53;7400166;19;20463;-45
2021/12/01 02:02:06;;;;;;;23.20;9.97;;;;;;;3.95;100.00;99124.47;7402136;19;20395;-49
2021/12/01 02:04:37;;;;;;;21.57;9.27;;;;;;;3.97;100.00;99125.41;7399041;19;20652;-47
2021/12/01 02:07:07;;;;;;;29.43;11.43;;;;;;;3.85;100.00;99124.06;7396472;19;20734;-48
2021/12/01 02:09:36;;;;;;;31.90;10.80;;;;;;;3.74;100.00;99115.13;7399220;19;20455;-52
2021/12/01 02:12:09;;;;;;;17.23;9.80;;;;;;;3.73;100.00;99115.91;7402918;19;20832;-44
2021/12/01 02:14:39;;;;;;;25.33;11.07;;;;;;;3.58;100.00;99108.47;7399854;19;20384;-44
2021/12/01 02:17:08;;;;;;;25.73;10.13;;;;;;;3.58;100.00;99106.78;7401076;19;20407;-46
2021/12/01 02:19:40;;;;;;;21.60;9.90;;;;;;;3.56;100.00;99098.19;7399241;19;20456;-44
2021/12/01 02:22:12;;;;;;;27.00;11.10;;;;;;;3.51;100.00;99094.56;7402809;19;20837;-44
2021/12/01 02:24:42;;;;;;;38.57;11.10;;;;;;;3.53;100.00;99080.19;7399253;19;20392;-45
2021/12/01 02:27:14;;;;;;;20.20;10.40;;;;;;;3.54;100.00;99084.50;7401602;19;20419;-43
2021/12/01 02:29:44;;;;;;;24.87;10.63;;;;;;;3.53;100.00;99070.00;7399266;19;20647;-46
2021/12/01 02:32:14;;;;;;;30.70;10.30;;;;;;;3.53;100.00;99072.56;7402618;19;20459;-45
2021/12/01 02:34:44;;;;;;;28.30;9.10;;;;;;;3.61;100.00;99055.03;7399179;19;20415;-48
2021/12/01 02:37:16;;;;;;;32.13;12.13;;;;;;;3.65;100.00;99044.16;7400019;19;20423;-48
2021/12/01 02:39:46;;;;;;;23.80;10.70;;;;;;;3.69;100.00;99032.41;7398681;19;20840;-52
2021/12/01 02:42:20;;;;;;;27.73;10.30;;;;;;;3.62;100.00;99028.72;7403055;19;20463;-47
2021/12/01 02:44:50;;;;;;;20.63;9.90;;;;;;;3.68;100.00;99003.47;7398430;19;20390;-48
2021/12/01 02:47:20;;;;;;;18.90;11.40;;;;;;;3.83;100.00;98998.13;7400341;19;20567;-51
2021/12/01 02:49:49;;;;;;;28.40;10.60;;;;;;;3.81;100.00;98989.53;7398115;19;20391;-47
2021/12/01 02:52:22;;;;;;;12.93;8.03;;;;;;;3.79;100.00;98975.84;7404059;19;20396;-51
2021/12/01 02:54:52;;;;;;;20.93;8.20;;;;;;;3.81;100.00;98969.13;7398072;19;20416;-49
2021/12/01 02:57:21;;;;;;;24.23;10.73;;;;;;;3.78;100.00;98963.88;7400187;19;20471;-45
2021/12/01 02:59:51;;;;;;;20.03;7.93;;;;;;;3.85;100.00;98950.56;7397790;19;20499;-45
2021/12/01 03:02:21;;;;;;;13.90;6.97;;;;;;;3.87;100.00;98951.53;7401789;19;20456;-43
2021/12/01 03:04:50;;;;;;;16.40;6.73;;;;;;;3.83;100.00;98930.91;7397914;19;20413;-44
2021/12/01 03:07:22;;;;;;;14.63;6.97;;;;;;;3.77;100.00;98927.31;7400967;19;20423;-45
2021/12/01 03:09:52;;;;;;;11.83;5.70;;;;;;;3.79;100.00;98919.69;7397019;19;20487;-49
2021/12/01 03:12:21;;;;;;;11.97;6.57;;;;;;;3.78;100.00;98920.53;7401582;19;20402;-43
2021/12/01 03:14:53;;;;;;;10.90;5.57;;;;;;;3.71;100.00;98918.53;7397765;19;20757;-49
2021/12/01 03:17:22;;;;;;;11.87;5.30;;;;;;;3.71;100.00;98921.97;7399619;19;20721;-46
2021/12/01 03:19:52;;;;;;;8.23;4.90;;;;;;;3.74;100.00;98903.38;7396973;19;20407;-48
2021/12/01 03:22:24;;;;;;;9.33;5.10;;;;;;;3.80;100.00;98895.06;7401042;19;20720;-44
2021/12/01 03:24:54;;;;;;;7.57;4.90;;;;;;;3.76;100.00;98886.44;7399848;19;20897;-43
2021/12/01 03:27:24;;;;;;;9.93;5.00;;;;;;;3.74;100.00;98865.97;7399474;19;20415;-44
2021/12/01 03:29:54;;;;;;;6.47;3.70;;;;;;;3.67;100.00;98840.16;7396784;19;20411;-43
2021/12/01 03:32:23;;;;;;;9.40;4.03;;;;;;;3.78;100.00;98836.34;7400846;19;20451;-48
2021/12/01 03:34:53;;;;;;;5.63;3.23;;;;;;;3.84;100.00;98822.97;7396879;19;20415;-46
2021/12/01 03:37:25;;;;;;;5.37;2.80;;;;;;;3.80;100.00;98819.41;7399097;19;20759;-45
2021/12/01 03:39:54;;;;;;;7.00;3.10;;;;;;;3.78;100.00;98816.81;7396228;19;20754;-45
2021/12/01 03:42:24;;;;;;;5.10;2.80;;;;;;;3.81;100.00;98813.50;7400761;19;20391;-46
2021/12/01 03:44:53;;;;;;;4.83;3.23;;;;;;;3.90;100.00;98790.00;7396493;19;20494;-45
2021/12/01 03:47:23;;;;;;;3.50;2.93;;;;;;;3.89;100.00;98784.03;7398087;19;20495;-46
2021/12/01 03:49:53;;;;;;;7.60;3.80;;;;;;;3.94;100.00;98778.25;7395968;19;20514;-50
2021/12/01 03:52:25;;;;;;;3.97;2.87;;;;;;;3.85;100.00;98777.06;7404615;19;20404;-49
2021/12/01 03:54:55;;;;;;;5.30;2.67;;;;;;;3.86;100.00;98763.53;7398673;19;20395;-44
2021/12/01 03:57:25;;;;;;;6.60;2.60;;;;;;;3.80;100.00;98772.63;7398389;19;20698;-45
2021/12/01 03:59:55;;;;;;;7.50;3.40;;;;;;;3.87;100.00;98760.16;7395852;19;20415;-45
2021/12/01 04:02:24;;;;;;;5.73;2.83;;;;;;;3.86;100.00;98752.44;7400059;19;20394;-46
2021/12/01 04:04:54;;;;;;;5.80;3.67;;;;;;;3.93;100.00;98739.09;7395927;19;20405;-45
2021/12/01 04:07:26;;;;;;;6.57;3.27;;;;;;;3.95;100.00;98734.88;7397471;19;20433;-48
2021/12/01 04:09:56;;;;;;;6.23;3.53;;;;;;;3.91;100.00;98726.25;7395105;19;20486;-44
2021/12/01 04:12:25;;;;;;;7.53;3.27;;;;;;;4.02;100.00;98723.22;7399716;19;20405;-46
2021/12/01 04:14:55;;;;;;;4.07;2.50;;;;;;;3.95;100.00;98714.47;7394998;19;20475;-47
2021/12/01 04:17:24;;;;;;;5.03;3.20;;;;;;;3.92;100.00;98699.06;7397986;19;20432;-48
2021/12/01 04:19:54;;;;;;;3.57;2.80;;;;;;;3.90;100.00;98693.91;7395201;19;20466;-49
2021/12/01 04:22:23;;;;;;;5.27;2.93;;;;;;;3.83;100.00;98685.97;7399352;19;20853;-46
2021/12/01 04:24:55;;;;;;;4.87;2.90;;;;;;;3.89;100.00;98668.31;7395168;19;20422;-44
2021/12/01 04:27:25;;;;;;;6.73;2.73;;;;;;;3.90;100.00;98658.19;7396514;19;20431;-49
2021/12/01 04:29:54;;;;;;;3.30;2.50;;;;;;;3.88;100.00;98659.81;7394782;19;20419;-46
2021/12/01 04:32:24;;;;;;;2.60;2.40;;;;;;;3.81;100.00;98651.91;7399254;19;20408;-50
2021/12/01 04:34:53;;;;;;;4.63;3.27;;;;;;;3.87;100.00;98640.22;7394840;19;20477;-46
2021/12/01 04:37:23;;;;;;;4.87;3.27;;;;;;;3.97;100.00;98627.78;7397086;19;20495;-45
2021/12/01 04:39:55;;;;;;;4.90;3.33;;;;;;;4.01;100.00;98619.41;7394494;19;20486;-47
2021/12/01 04:42:25;;;;;;;5.80;3.90;;;;;;;4.01;100.00;98609.22;7399110;19;20740;-45
2021/12/01 04:44:54;;;;;;;4.27;3.00;;;;;;;3.92;100.00;98600.44;7398228;19;20690;-45
2021/12/01 04:47:28;;;;;;;4.43;3.30;;;;;;;3.97;100.00;98592.06;7396502;19;20443;-44
2021/12/01 04:49:58;;;;;;;4.83;3.57;;;;;;;4.10;100.00;98578.88;7394444;19;20395;-47
2021/12/01 04:52:27;;;;;;;5.97;3.93;;;;;;;4.13;100.00;98573.88;7399158;19;20392;-48
2021/12/01 04:54:59;;;;;;;6.67;4.30;;;;;;;4.15;100.00;98572.25;7394563;19;20744;-43
2021/12/01 04:57:29;;;;;;;5.33;3.70;;;;;;;4.28;100.00;98563.31;7396449;19;20422;-47
2021/12/01 04:59:58;;;;;;;4.23;3.43;;;;;;;4.30;100.00;98553.13;7393898;19;20527;-47
2021/12/01 05:02:28;;;;;;;4.30;3.30;;;;;;;4.22;100.00;98544.38;7402941;19;20741;-47
2021/12/01 05:04:59;;;;;;;5.60;3.00;;;;;;;4.26;100.00;98544.50;7394442;19;20411;-48
2021/12/01 05:07:28;;;;;;;3.23;2.63;;;;;;;4.20;100.00;98529.00;7396170;19;20415;-48
2021/12/01 05:10:01;;;;;;;4.33;3.30;;;;;;;4.24;100.00;98519.75;7393278;19;20478;-46
2021/12/01 05:12:30;;;;;;;6.10;3.77;;;;;;;4.25;100.00;98511.28;7398139;19;20864;-47
2021/12/01 05:15:00;;;;;;;3.87;2.90;;;;;;;4.26;100.00;98497.69;7394075;19;20425;-44
2021/12/01 05:17:29;;;;;;;4.10;2.60;;;;;;;4.29;100.00;98497.78;7396021;19;20487;-48
2021/12/01 05:19:59;;;;;;;8.50;3.80;;;;;;;4.23;100.00;98495.03;7393711;19;20754;-43
2021/12/01 05:22:28;;;;;;;5.57;3.43;;;;;;;4.29;100.00;98482.47;7399979;19;20471;-47
2021/12/01 05:25:00;;;;;;;5.50;3.33;;;;;;;4.25;100.00;98483.22;7393911;19;20746;-43
2021/12/01 05:27:30;;;;;;;5.90;4.20;;;;;;;4.37;100.00;98472.50;7395506;19;20491;-49
2021/12/01 05:29:59;;;;;;;6.17;4.00;;;;;;;4.43;100.00;98460.78;7393314;19;20417;-52
2021/12/01 05:32:30;;;;;;;7.40;4.40;;;;;;;4.53;100.00;98458.47;7397694;19;20733;-45
2021/12/01 05:35:00;;;;;;;6.67;4.50;;;;;;;4.54;100.00;98452.56;7393538;19;20927;-49
2021/12/01 05:37:29;;;;;;;5.40;4.03;;;;;;;4.56;100.00;98435.59;7395866;19;20872;-51
2021/12/01 05:40:01;;;;;;;8.50;3.60;;;;;;;4.55;100.00;98432.16;7400234;19;20603;-51
2021/12/01 05:42:31;;;;;;;4.73;3.30;;;;;;;4.56;100.00;98425.38;7404711;19;20391;-50
2021/12/01 05:45:00;;;;;;;5.33;3.70;;;;;;;4.61;100.00;98413.59;7400253;19;20417;-52
2021/12/01 05:47:30;;;;;;;5.93;5.00;;;;;;;4.60;100.00;98409.31;7401875;19;20470;-49
2021/12/01 05:49:59;;;;;;;7.77;4.97;;;;;;;4.71;100.00;98401.94;7399613;19;20401;-53
2021/12/01 05:52:29;;;;;;;7.50;5.20;;;;;;;4.69;100.00;98391.69;7408310;19;20483;-53
2021/12/01 05:55:01;;;;;;;5.73;4.40;;;;;;;4.72;100.00;98389.22;7400056;19;20467;-51
2021/12/01 05:57:30;;;;;;;7.33;4.73;;;;;;;4.92;100.00;98373.53;7401622;19;20505;-52
2021/12/01 06:00:01;;;;;;;18.00;10.73;;;;;;;5.50;100.00;98363.03;7399946;19;20778;-51
2021/12/01 06:02:30;;;;;;;31.50;18.13;;;;;;;5.31;100.00;98355.75;7403930;19;20853;-46
2021/12/01 06:05:00;;;;;;;27.90;16.47;;;;;;;5.53;100.00;98345.22;7399784;19;20408;-45
2021/12/01 06:07:29;;;;;;;6.80;5.43;;;;;;;5.36;100.00;98338.84;7401302;19;20491;-45
2021/12/01 06:10:02;;;;;;;8.00;5.73;;;;;;;5.21;100.00;98329.97;7399104;19;20412;-44
2021/12/01 06:12:32;;;;;;;7.07;5.73;;;;;;;5.19;100.00;98308.63;7403683;19;20724;-46
2021/12/01 06:15:02;;;;;;;7.13;5.70;;;;;;;5.22;100.00;98310.38;7398961;19;20395;-45
2021/12/01 06:17:32;;;;;;;7.93;6.17;;;;;;;5.18;100.00;98308.59;7401083;19;20506;-45
2021/12/01 06:20:01;;;;;;;8.27;6.43;;;;;;;5.26;100.00;98300.28;7399018;19;20494;-44
2021/12/01 06:22:31;;;;;;;8.50;6.57;;;;;;;5.37;100.00;98294.53;7403280;19;20396;-50
2021/12/01 06:25:03;;;;;;;10.47;7.47;;;;;;;5.42;100.00;98295.50;7398990;19;20475;-45
2021/12/01 06:27:32;;;;;;;8.83;6.47;;;;;;;5.44;100.00;98293.84;7400663;19;20434;-45
2021/12/01 06:30:02;;;;;;;9.60;6.90;;;;;;;5.57;100.00;98274.53;7398691;19;20487;-44
2021/12/01 06:32:31;;;;;;;8.87;6.60;;;;;;;5.65;100.00;98275.56;7402966;19;20455;-45
2021/12/01 06:35:01;;;;;;;8.73;6.07;;;;;;;5.77;100.00;98264.72;7398838;19;20436;-45
2021/12/01 06:37:30;;;;;;;10.90;7.63;;;;;;;5.94;100.00;98256.53;7400654;19;20420;-44
2021/12/01 06:40:02;;;;;;;8.00;5.43;;;;;;;6.07;100.00;98247.44;7398122;19;20491;-46
2021/12/01 06:42:32;;;;;;;8.17;5.83;;;;;;;6.33;100.00;98244.50;7402655;19;20393;-46
2021/12/01 06:45:01;;;;;;;10.43;6.63;;;;;;;6.51;100.00;98238.84;7401271;19;21008;-43
2021/12/01 06:47:31;;;;;;;5.70;3.97;;;;;;;6.65;100.00;98235.69;7399905;19;20680;-50
2021/12/01 06:50:01;;;;;;;9.67;4.57;;;;;;;6.83;100.00;98230.84;7397267;19;20426;-44
2021/12/01 06:52:30;;;;;;;5.03;3.10;;;;;;;6.91;100.00;98230.13;7401929;19;20872;-49
2021/12/01 06:55:03;;;;;;;12.30;5.40;;;;;;;6.98;100.00;98219.13;7398035;19;20397;-48
2021/12/01 06:57:33;;;;;;;6.90;5.03;;;;;;;7.06;100.00;98211.53;7399861;19;20425;-43
2021/12/01 07:00:03;;;;;;;10.30;6.33;;;;;;;7.08;100.00;98197.91;7397449;19;20487;-45
2021/12/01 07:02:32;;;;;;;4.43;3.10;;;;;;;7.06;100.00;98184.22;7401843;19;20385;-45
2021/12/01 07:05:02;;;;;;;5.80;4.30;;;;;;;7.13;100.00;98191.16;7397184;19;20421;-48
2021/12/01 07:07:31;;;;;;;5.80;4.23;;;;;;;7.13;100.00;98178.31;7404006;19;20742;-48
2021/12/01 07:10:04;;;;;;;5.77;4.10;;;;;;;7.10;100.00;98173.16;7397223;19;20441;-43
2021/12/01 07:12:33;;;;;;;4.37;2.70;;;;;;;7.14;100.00;98166.38;7402063;19;20389;-45
2021/12/01 07:15:03;;;;;;;4.23;3.10;;;;;;;7.18;100.00;98159.59;7397308;19;20412;-47
2021/12/01 07:17:32;;;;;;;5.37;3.60;;;;;;;7.19;100.00;98156.19;7399419;19;20411;-44
2021/12/01 07:20:02;;;;;;;4.50;3.23;;;;;;;7.16;100.00;98152.75;7396870;19;20774;-46
2021/12/01 07:22:31;;;;;;;5.00;3.47;;;;;;;7.20;100.00;98140.81;7401203;19;20462;-49
2021/12/01 07:25:04;;;;;;;12.60;6.80;;;;;;;7.16;100.00;98139.91;7400257;19;20488;-46
2021/12/01 07:27:33;;;;;;;4.73;2.80;;;;;;;7.15;100.00;98137.31;7398711;19;20415;-45
2021/12/01 07:30:03;;;;;;;4.27;2.60;;;;;;;7.13;100.00;98126.19;7396683;19;20414;-46
2021/12/01 07:32:32;;;;;;;3.13;2.47;;;;;;;7.12;100.00;98120.19;7400969;19;20397;-44
2021/12/01 07:35:02;;;;;;;4.03;2.50;;;;;;;7.10;100.00;98127.00;7397020;19;20421;-48
2021/12/01 07:37:32;;;;;;;5.80;2.77;;;;;;;7.08;100.00;98131.22;7398889;19;20419;-43
2021/12/01 07:40:04;;;;;;;3.70;2.90;;;;;;;7.09;100.00;98112.47;7396248;19;20430;-50
2021/12/01 07:42:34;;;;;;;13.93;2.40;;;;;;;7.04;100.00;98121.78;7400691;19;20418;-48
2021/12/01 07:45:04;;;;;;;4.10;3.03;;;;;;;7.05;100.00;98099.56;7396536;19;20482;-46
2021/12/01 07:47:34;;;;;;;4.10;3.60;;;;;;;7.05;100.00;98097.88;7400468;19;20434;-47
2021/12/01 07:50:03;;;;;;;3.23;2.70;;;;;;;7.01;100.00;98094.41;7395866;19;20424;-51
2021/12/01 07:52:33;;;;;;;7.00;4.20;;;;;;;7.05;100.00;98077.38;7404738;19;20420;-48
2021/12/01 07:55:06;;;;;;;4.30;3.00;;;;;;;7.01;100.00;98086.72;7397494;19;20434;-45
2021/12/01 07:57:36;;;;;;;6.10;4.70;;;;;;;7.01;100.00;98085.84;7398067;19;20480;-46
2021/12/01 08:00:08;;;;;;;6.47;3.90;;;;;;;6.99;100.00;98087.53;7394129;19;20410;-46
2021/12/01 08:02:38;;;;;;;5.07;3.87;;;;;;;6.95;100.00;98071.25;7400005;19;20403;-49
2021/12/01 08:05:09;;;;;;;4.73;3.37;;;;;;;6.96;100.00;98067.84;7395705;19;20415;-45
2021/12/01 08:07:39;;;;;;;6.20;4.10;;;;;;;6.94;100.00;98064.41;7397645;19;20478;-46
2021/12/01 08:10:12;;;;;;;5.90;3.50;;;;;;;6.89;100.00;98072.00;7395058;19;20408;-46
2021/12/01 08:12:41;;;;;;;6.43;5.67;;;;;;;6.93;100.00;98046.44;7399751;19;20405;-47
2021/12/01 08:15:12;;;;;;;6.33;5.20;;;;;;;6.85;100.00;98049.78;7395365;19;20415;-44
2021/12/01 08:17:41;;;;;;;5.80;4.67;;;;;;;6.86;100.00;98051.50;7397750;19;20412;-45
2021/12/01 08:20:12;;;;;;;4.73;3.23;;;;;;;6.83;100.00;98041.16;7395117;19;20416;-46
2021/12/01 08:22:42;;;;;;;5.50;4.57;;;;;;;6.85;100.00;98048.91;7399457;19;20470;-46
2021/12/01 08:25:14;;;;;;;7.50;5.83;;;;;;;6.85;100.00;98038.63;7395481;19;21439;-44
2021/12/01 08:27:43;;;;;;;6.83;4.10;;;;;;;6.84;100.00;98032.66;7397179;19;20429;-45
2021/12/01 08:30:13;;;;;;;7.40;4.70;;;;;;;6.81;100.00;98042.88;7395049;19;20424;-46
2021/12/01 08:32:45;;;;;;;3.70;3.23;;;;;;;6.77;100.00;98025.72;7399125;19;20433;-47
2021/12/01 08:35:15;;;;;;;7.23;6.10;;;;;;;6.77;100.00;98025.72;7395663;19;20572;-44
2021/12/01 08:37:45;;;;;;;7.10;4.57;;;;;;;6.72;100.00;98012.00;7397140;19;20455;-45
2021/12/01 08:40:18;;;;;;;7.63;3.97;;;;;;;6.72;100.00;98006.88;7394490;19;20689;-45
2021/12/01 08:42:48;;;;;;;4.90;3.57;;;;;;;6.71;100.00;97989.75;7399052;19;20454;-47
2021/12/01 08:45:18;;;;;;;5.73;4.37;;;;;;;6.71;100.00;97985.50;7395160;19;20687;-50
2021/12/01 08:47:48;;;;;;;5.40;4.30;;;;;;;6.73;100.00;97980.41;7397290;19;20425;-50
2021/12/01 08:50:18;;;;;;;6.00;4.77;;;;;;;6.75;100.00;97976.16;7393238;19;20477;-49
2021/12/01 08:52:48;;;;;;;8.37;3.03;;;;;;;6.70;100.00;97972.66;7398814;19;20403;-51
2021/12/01 08:55:21;;;;;;;5.60;4.77;;;;;;;6.73;100.00;97957.34;7394544;19;20467;-49
2021/12/01 08:58:08;;;;;;;4.57;3.60;;;;;;;6.75;100.00;97971.03;7396396;19;20440;-48
2021/12/01 09:00:42;;;;;;;5.23;4.73;;;;;;;6.77;100.00;97953.13;7394697;19;20481;-52
2021/12/01 09:03:12;;;;;;;5.63;4.40;;;;;;;6.74;100.00;97941.13;7398515;19;20833;-49
2021/12/01 09:05:42;;;;;;;4.70;4.20;;;;;;;6.74;100.00;97938.56;7393763;19;20422;-53
2021/12/01 09:08:12;;;;;;;4.90;4.00;;;;;;;6.75;100.00;97936.03;7396032;19;20421;-53
2021/12/01 09:10:45;;;;;;;3.10;2.70;;;;;;;6.76;100.00;97926.63;7395991;19;20504;-51
2021/12/01 09:13:15;;;;;;;3.90;2.47;;;;;;;6.76;100.00;97942.00;7404428;19;20397;-46
2021/12/01 09:15:45;;;;;;;5.30;4.20;;;;;;;6.82;100.00;97921.56;7400437;19;20426;-45
2021/12/01 09:18:15;;;;;;;3.47;2.13;;;;;;;6.74;100.00;97928.31;7405382;19;20381;-44
2021/12/01 09:20:44;;;;;;;5.63;3.23;;;;;;;6.74;100.00;97912.94;7401366;19;20418;-46
2021/12/01 09:23:14;;;;;;;4.40;2.37;;;;;;;6.67;100.00;97919.69;7405369;19;20402;-51
2021/12/01 09:25:48;;;;;;;4.73;3.47;;;;;;;6.60;100.00;97913.63;7400353;19;20430;-45
2021/12/01 09:28:22;;;;;;;6.17;4.50;;;;;;;6.61;100.00;97912.78;7408879;19;20403;-47
2021/12/01 09:30:53;;;;;;;4.27;2.63;;;;;;;6.53;100.00;97919.53;7400912;19;20502;-44
2021/12/01 09:33:23;;;;;;;2.80;2.00;;;;;;;6.55;100.00;97920.41;7405159;19;20444;-46
2021/12/01 09:35:53;;;;;;;2.73;2.50;;;;;;;6.60;100.00;97905.06;7399910;19;20475;-45
2021/12/01 09:38:23;;;;;;;3.17;2.70;;;;;;;6.54;100.00;97903.31;7405048;19;20396;-48
2021/12/01 09:40:57;;;;;;;4.23;3.63;;;;;;;6.54;100.00;97897.31;7402302;19;20421;-49
2021/12/01 09:43:31;;;;;;;4.47;2.77;;;;;;;6.52;100.00;97901.56;7408319;19;20383;-46
2021/12/01 09:46:03;;;;;;;6.20;3.30;;;;;;;6.55;100.00;97894.78;7399334;19;20426;-44
2021/12/01 09:48:34;;;;;;;5.10;3.30;;;;;;;6.62;100.00;97878.63;7404220;19;20448;-49
2021/12/01 09:51:14;;;;;;;4.40;3.90;;;;;;;6.55;100.00;97871.72;7400495;19;21217;-44
2021/12/01 09:53:43;;;;;;;4.67;4.17;;;;;;;6.67;100.00;97859.91;7404241;19;20459;-46
2021/12/01 09:56:16;;;;;;;6.13;3.97;;;;;;;6.67;100.00;97859.91;7401957;19;20476;-49
2021/12/01 09:58:45;;;;;;;5.33;2.67;;;;;;;6.65;100.00;97846.22;7404345;19;20393;-48
2021/12/01 10:01:18;;;;;;;3.90;3.33;;;;;;;6.70;100.00;97852.22;7399790;19;20493;-46
2021/12/01 10:03:48;;;;;;;3.07;2.27;;;;;;;6.75;100.00;97822.41;7404091;19;20404;-46
2021/12/01 10:06:20;;;;;;;5.37;3.77;;;;;;;6.71;100.00;97831.75;7398096;19;20427;-44
2021/12/01 10:08:52;;;;;;;3.07;2.20;;;;;;;6.70;100.00;97813.78;7403164;19;20877;-44
2021/12/01 10:11:25;;;;;;;3.80;3.40;;;;;;;6.69;100.00;97809.53;7399802;19;20492;-46
2021/12/01 10:13:57;;;;;;;3.00;2.40;;;;;;;6.67;100.00;97801.81;7403739;19;20905;-43
2021/12/01 10:16:28;;;;;;;2.37;2.00;;;;;;;6.77;100.00;97779.69;7398134;19;20495;-44
2021/12/01 10:19:00;;;;;;;3.20;2.80;;;;;;;6.75;100.00;97776.28;7403790;19;20397;-44
2021/12/01 10:21:35;;;;;;;2.90;2.17;;;;;;;6.74;100.00;97774.56;7400156;19;20478;-45
2021/12/01 10:24:09;;;;;;;3.17;1.70;;;;;;;6.77;100.00;97768.59;7401854;19;20654;-44
2021/12/01 10:26:44;;;;;;;2.70;2.20;;;;;;;6.80;100.00;97754.13;7397549;19;20436;-47
2021/12/01 10:29:19;;;;;;;2.43;1.50;;;;;;;6.83;100.00;97754.13;7402730;19;20385;-46
2021/12/01 10:31:51;;;;;;;3.63;3.00;;;;;;;6.80;100.00;97754.13;7399030;19;20741;-43
2021/12/01 10:34:29;;;;;;;2.20;1.43;;;;;;;6.81;100.00;97737.88;7402988;19;20397;-46
2021/12/01 10:37:26;;;;;;;3.13;2.63;;;;;;;6.82;100.00;97737.03;7400444;19;20409;-46
2021/12/01 10:40:08;;;;;;;3.03;1.67;;;;;;;6.81;100.00;97735.31;7397545;19;20855;-50
2021/12/01 10:42:52;;;;;;;3.60;2.70;;;;;;;6.85;100.00;97716.56;7403400;19;20388;-48
2021/12/01 10:45:24;;;;;;;2.50;1.70;;;;;;;6.83;100.00;97694.34;7397796;19;20474;-48
2021/12/01 10:47:53;;;;;;;3.30;2.70;;;;;;;6.93;100.00;97692.69;7400932;19;20479;-46
2021/12/01 10:50:27;;;;;;;2.30;2.10;;;;;;;6.94;100.00;97704.66;7397334;19;20429;-50
2021/12/01 10:53:04;;;;;;;2.33;1.87;;;;;;;6.93;100.00;97693.56;7402343;19;20713;-45
2021/12/01 10:55:34;;;;;;;1.70;1.60;;;;;;;6.96;100.00;97682.47;7397619;19;20413;-52
2021/12/01 10:58:08;;;;;;;2.67;1.73;;;;;;;6.98;100.00;97675.66;7400535;19;20472;-46
2021/12/01 11:00:42;;;;;;;2.60;2.30;;;;;;;6.99;100.00;97662.00;7397857;19;20492;-46
2021/12/01 11:03:13;;;;;;;4.30;2.03;;;;;;;6.97;100.00;97658.56;7402106;19;20846;-46
2021/12/01 11:05:45;;;;;;;2.60;2.27;;;;;;;6.95;100.00;97661.13;7396340;19;20411;-49
2021/12/01 11:08:17;;;;;;;1.70;1.50;;;;;;;6.87;100.00;97642.28;7401296;19;20409;-45
2021/12/01 11:10:48;;;;;;;2.47;2.10;;;;;;;6.82;100.00;97634.53;7397277;19;20690;-48
2021/12/01 11:13:21;;;;;;;2.13;1.90;;;;;;;6.79;100.00;97618.28;7401651;19;20385;-44
2021/12/01 11:15:54;;;;;;;2.30;2.10;;;;;;;6.78;100.00;97637.94;7396620;19;20413;-44
2021/12/01 11:18:44;;;;;;;3.37;2.20;;;;;;;6.83;100.00;97620.84;7401247;19;20373;-44
2021/12/01 11:21:17;;;;;;;2.10;1.87;;;;;;;6.78;100.00;97616.56;7398224;19;20425;-46
2021/12/01 11:23:47;;;;;;;4.30;2.50;;;;;;;6.82;100.00;97620.88;7401412;19;20398;-48
2021/12/01 11:26:19;;;;;;;3.10;2.27;;;;;;;6.80;100.00;97615.72;7395761;19;20496;-44
2021/12/01 11:28:54;;;;;;;2.80;2.20;;;;;;;6.86;100.00;97595.28;7401418;19;20418;-45
2021/12/01 11:31:25;;;;;;;2.40;2.20;;;;;;;6.94;100.00;97581.63;7396819;19;20691;-45
2021/12/01 11:33:57;;;;;;;2.90;2.23;;;;;;;6.95;100.00;97573.09;7400737;19;20386;-46
2021/12/01 11:36:28;;;;;;;2.40;1.83;;;;;;;6.91;100.00;97573.94;7395969;19;20438;-45
2021/12/01 11:39:01;;;;;;;1.90;1.63;;;;;;;6.92;100.00;97573.94;7400835;19;20394;-46
2021/12/01 11:41:31;;;;;;;2.50;2.20;;;;;;;6.92;100.00;97557.72;7396671;19;20481;-46
2021/12/01 11:44:05;;;;;;;2.97;2.60;;;;;;;6.96;100.00;97536.34;7400682;19;20459;-47
2021/12/01 11:46:34;;;;;;;2.50;1.63;;;;;;;6.96;100.00;97531.22;7395529;19;21005;-47
2021/12/01 11:49:08;;;;;;;2.30;1.70;;;;;;;6.96;100.00;97528.66;7400723;19;21230;-43
2021/12/01 11:51:46;;;;;;;3.20;1.77;;;;;;;6.98;100.00;97529.53;7394583;19;20518;-45